Terminal Aerodrome Forecast
Issued by NWS Miami, FL

Home | Current Version | Previous Version | Text Only | Print | Product List | Glossary On
Versions: 1 2 3 4 5 6 7 8 9 10 11 12 13 14 15 16 17 18 19 20 21 22 23 24 25 26 27 28
000
FTUS42 KMFL 011138
TAFFLL
TAF
KFLL 011138Z 0112/0212 VRB06KT P6SM -SHRA VCTS SCT030CB SCT110
      BKN250
     FM011500 11011KT P6SM VCTS SCT025CB BKN060 BKN250
     FM020000 09009KT P6SM VCSH SCT025 SCT080 BKN250=

USA.gov is the U.S. government's official web portal to all federal, state and local government web resources and services.